sensor_id;sensor_type;location;lat;lon;timestamp;pressure;altitude;pressure_sealevel;temperature;humidity
23164;BME280;31429;42.674;23.350;2022-12-29T00:00:29;95718.78;;;5.38;100.00
23164;BME280;31429;42.674;23.350;2022-12-29T00:01:30;95722.16;;;5.39;100.00
23164;BME280;31429;42.674;23.350;2022-12-29T00:02:31;95720.50;;;5.36;100.00
23164;BME280;31429;42.674;23.350;2022-12-29T00:03:31;95712.03;;;5.27;100.00
23164;BME280;31429;42.674;23.350;2022-12-29T00:04:32;95706.97;;;5.23;100.00
23164;BME280;31429;42.674;23.350;2022-12-29T00:05:34;95715.41;;;5.36;100.00
23164;BME280;31429;42.674;23.350;2022-12-29T00:06:34;95714.56;;;5.42;100.00
23164;BME280;31429;42.674;23.350;2022-12-29T00:07:35;95711.16;;;5.44;100.00
23164;BME280;31429;42.674;23.350;2022-12-29T00:08:36;95710.28;;;5.48;100.00
23164;BME280;31429;42.674;23.350;2022-12-29T00:09:39;95706.91;;;5.55;100.00
23164;BME280;31429;42.674;23.350;2022-12-29T00:10:40;95713.69;;;5.50;100.00
23164;BME280;31429;42.674;23.350;2022-12-29T00:11:40;95708.63;;;5.47;100.00
23164;BME280;31429;42.674;23.350;2022-12-29T00:12:41;95715.41;;;5.41;100.00
23164;BME280;31429;42.674;23.350;2022-12-29T00:14:00;95718.75;;;5.43;100.00
23164;BME280;31429;42.674;23.350;2022-12-29T00:15:19;95720.44;;;5.42;100.00
23164;BME280;31429;42.674;23.350;2022-12-29T00:16:40;95720.47;;;5.38;100.00
23164;BME280;31429;42.674;23.350;2022-12-29T00:17:41;95718.75;;;5.49;100.00
23164;BME280;31429;42.674;23.350;2022-12-29T00:18:42;95717.03;;;5.48;100.00
23164;BME280;31429;42.674;23.350;2022-12-29T00:19:42;95720.44;;;5.51;100.00
23164;BME280;31429;42.674;23.350;2022-12-29T00:21:02;95723.84;;;5.44;100.00
23164;BME280;31429;42.674;23.350;2022-12-29T00:22:22;95712.81;;;5.51;100.00
23164;BME280;31429;42.674;23.350;2022-12-29T00:23:41;95722.16;;;5.43;100.00
23164;BME280;31429;42.674;23.350;2022-12-29T00:25:02;95727.25;;;5.39;100.00
23164;BME280;31429;42.674;23.350;2022-12-29T00:26:11;95718.78;;;5.37;100.00
23164;BME280;31429;42.674;23.350;2022-12-29T00:27:32;95714.56;;;5.28;100.00
23164;BME280;31429;42.674;23.350;2022-12-29T00:28:51;95723.84;;;5.38;100.00
23164;BME280;31429;42.674;23.350;2022-12-29T00:30:11;95716.22;;;5.40;100.00
23164;BME280;31429;42.674;23.350;2022-12-29T00:31:31;95718.78;;;5.37;100.00
23164;BME280;31429;42.674;23.350;2022-12-29T00:32:50;95728.09;;;5.24;100.00
23164;BME280;31429;42.674;23.350;2022-12-29T00:34:11;95728.13;;;5.21;100.00
23164;BME280;31429;42.674;23.350;2022-12-29T00:35:33;95724.72;;;5.30;100.00
23164;BME280;31429;42.674;23.350;2022-12-29T00:36:40;95728.94;;;5.29;100.00
23164;BME280;31429;42.674;23.350;2022-12-29T00:37:46;95733.19;;;5.27;100.00
23164;BME280;31429;42.674;23.350;2022-12-29T00:39:08;95731.50;;;5.31;100.00
23164;BME280;31429;42.674;23.350;2022-12-29T00:40:29;95728.09;;;5.32;100.00
23164;BME280;31429;42.674;23.350;2022-12-29T00:41:48;95733.16;;;5.30;100.00
23164;BME280;31429;42.674;23.350;2022-12-29T00:43:07;95732.31;;;5.28;100.00
23164;BME280;31429;42.674;23.350;2022-12-29T00:44:27;95728.09;;;5.27;100.00
23164;BME280;31429;42.674;23.350;2022-12-29T00:45:27;95728.94;;;5.31;100.00
23164;BME280;31429;42.674;23.350;2022-12-29T00:46:28;95732.31;;;5.34;100.00
23164;BME280;31429;42.674;23.350;2022-12-29T00:47:29;95740.78;;;5.24;100.00
23164;BME280;31429;42.674;23.350;2022-12-29T00:48:29;95739.94;;;5.16;100.00
23164;BME280;31429;42.674;23.350;2022-12-29T00:49:48;95738.22;;;5.26;100.00
23164;BME280;31429;42.674;23.350;2022-12-29T00:50:49;95739.94;;;5.30;100.00
23164;BME280;31429;42.674;23.350;2022-12-29T00:51:51;95739.06;;;5.38;100.00
23164;BME280;31429;42.674;23.350;2022-12-29T00:52:52;95740.75;;;5.41;100.00
23164;BME280;31429;42.674;23.350;2022-12-29T00:53:53;95738.22;;;5.36;100.00
23164;BME280;31429;42.674;23.350;2022-12-29T00:54:53;95741.59;;;5.32;100.00
23164;BME280;31429;42.674;23.350;2022-12-29T00:55:54;95736.53;;;5.32;100.00
23164;BME280;31429;42.674;23.350;2022-12-29T00:56:55;95730.63;;;5.35;100.00
23164;BME280;31429;42.674;23.350;2022-12-29T00:57:55;95734.84;;;5.30;100.00
23164;BME280;31429;42.674;23.350;2022-12-29T00:59:00;95736.53;;;5.26;100.00
23164;BME280;31429;42.674;23.350;2022-12-29T01:00:00;95734.84;;;5.36;100.00
23164;BME280;31429;42.674;23.350;2022-12-29T01:01:02;95732.31;;;5.36;100.00
23164;BME280;31429;42.674;23.350;2022-12-29T01:02:03;95732.31;;;5.36;100.00
23164;BME280;31429;42.674;23.350;2022-12-29T01:03:04;95730.59;;;5.45;100.00
23164;BME280;31429;42.674;23.350;2022-12-29T01:04:05;95739.88;;;5.46;100.00
23164;BME280;31429;42.674;23.350;2022-12-29T01:05:06;95740.75;;;5.44;100.00
23164;BME280;31429;42.674;23.350;2022-12-29T01:06:09;95742.44;;;5.43;100.00
23164;BME280;31429;42.674;23.350;2022-12-29T01:07:11;95739.03;;;5.43;100.00
23164;BME280;31429;42.674;23.350;2022-12-29T01:08:12;95740.75;;;5.39;100.00
23164;BME280;31429;42.674;23.350;2022-12-29T01:09:13;95741.63;;;5.28;100.00
23164;BME280;31429;42.674;23.350;2022-12-29T01:10:32;95737.38;;;5.28;100.00
23164;BME280;31429;42.674;23.350;2022-12-29T01:11:33;95737.41;;;5.16;100.00
23164;BME280;31429;42.674;23.350;2022-12-29T01:12:34;95731.50;;;5.15;100.00
23164;BME280;31429;42.674;23.350;2022-12-29T01:13:40;95728.97;;;5.25;100.00
23164;BME280;31429;42.674;23.350;2022-12-29T01:14:42;95731.47;;;5.23;100.00
23164;BME280;31429;42.674;23.350;2022-12-29T01:15:49;95737.44;;;5.07;100.00
23164;BME280;31429;42.674;23.350;2022-12-29T01:16:50;95728.94;;;5.14;100.00
23164;BME280;31429;42.674;23.350;2022-12-29T01:17:51;95721.34;;;5.20;100.00
23164;BME280;31429;42.674;23.350;2022-12-29T01:18:52;95724.72;;;5.27;100.00
23164;BME280;31429;42.674;23.350;2022-12-29T01:19:52;95728.06;;;5.38;100.00
23164;BME280;31429;42.674;23.350;2022-12-29T01:20:58;95728.09;;;5.39;100.00
23164;BME280;31429;42.674;23.350;2022-12-29T01:21:59;95728.91;;;5.41;100.00
23164;BME280;31429;42.674;23.350;2022-12-29T01:23:01;95727.25;;;5.33;100.00
23164;BME280;31429;42.674;23.350;2022-12-29T01:24:02;95722.16;;;5.37;100.00
23164;BME280;31429;42.674;23.350;2022-12-29T01:25:03;95725.56;;;5.39;100.00
23164;BME280;31429;42.674;23.350;2022-12-29T01:26:08;95724.69;;;5.40;100.00
23164;BME280;31429;42.674;23.350;2022-12-29T01:27:09;95733.16;;;5.36;100.00
23164;BME280;31429;42.674;23.350;2022-12-29T01:28:10;95722.16;;;5.31;100.00
23164;BME280;31429;42.674;23.350;2022-12-29T01:29:11;95726.44;;;5.18;100.00
23164;BME280;31429;42.674;23.350;2022-12-29T01:30:12;95721.34;;;5.17;100.00
23164;BME280;31429;42.674;23.350;2022-12-29T01:31:14;95718.84;;;5.15;100.00
23164;BME280;31429;42.674;23.350;2022-12-29T01:32:15;95728.97;;;5.12;100.00
23164;BME280;31429;42.674;23.350;2022-12-29T01:33:15;95718.84;;;5.00;100.00
23164;BME280;31429;42.674;23.350;2022-12-29T01:34:16;95716.31;;;5.06;100.00
23164;BME280;31429;42.674;23.350;2022-12-29T01:35:17;95719.69;;;5.19;100.00
23164;BME280;31429;42.674;23.350;2022-12-29T01:36:18;95705.28;;;5.19;100.00
23164;BME280;31429;42.674;23.350;2022-12-29T01:37:20;95714.59;;;5.19;100.00
23164;BME280;31429;42.674;23.350;2022-12-29T01:38:22;95712.06;;;5.20;100.00
23164;BME280;31429;42.674;23.350;2022-12-29T01:39:22;95709.50;;;5.27;100.00
23164;BME280;31429;42.674;23.350;2022-12-29T01:40:23;95717.09;;;5.25;100.00
23164;BME280;31429;42.674;23.350;2022-12-29T01:41:25;95711.19;;;5.29;100.00
23164;BME280;31429;42.674;23.350;2022-12-29T01:42:26;95706.97;;;5.27;100.00
23164;BME280;31429;42.674;23.350;2022-12-29T01:43:39;95720.50;;;5.26;100.00
23164;BME280;31429;42.674;23.350;2022-12-29T01:44:49;95707.00;;;5.14;100.00
23164;BME280;31429;42.674;23.350;2022-12-29T01:45:51;95711.22;;;5.14;100.00
23164;BME280;31429;42.674;23.350;2022-12-29T01:46:53;95709.53;;;5.10;100.00
23164;BME280;31429;42.674;23.350;2022-12-29T01:47:57;95705.34;;;5.07;100.00
23164;BME280;31429;42.674;23.350;2022-12-29T01:49:05;95704.47;;;5.04;100.00
23164;BME280;31429;42.674;23.350;2022-12-29T01:50:11;95706.19;;;5.08;100.00
23164;BME280;31429;42.674;23.350;2022-12-29T01:51:14;95699.41;;;5.08;100.00
23164;BME280;31429;42.674;23.350;2022-12-29T01:52:15;95695.19;;;5.03;100.00
23164;BME280;31429;42.674;23.350;2022-12-29T01:53:19;95699.41;;;5.07;100.00
23164;BME280;31429;42.674;23.350;2022-12-29T01:54:24;95697.72;;;5.09;100.00
23164;BME280;31429;42.674;23.350;2022-12-29T01:55:29;95693.47;;;5.18;100.00
23164;BME280;31429;42.674;23.350;2022-12-29T01:56:32;95698.56;;;5.12;100.00
23164;BME280;31429;42.674;23.350;2022-12-29T01:57:38;95701.94;;;5.10;100.00
23164;BME280;31429;42.674;23.350;2022-12-29T01:58:43;95704.47;;;5.08;100.00
23164;BME280;31429;42.674;23.350;2022-12-29T01:59:49;95691.81;;;5.04;100.00
23164;BME280;31429;42.674;23.350;2022-12-29T02:00:52;95690.97;;;5.06;100.00
23164;BME280;31429;42.674;23.350;2022-12-29T02:01:52;95692.66;;;5.03;100.00
23164;BME280;31429;42.674;23.350;2022-12-29T02:02:54;95692.63;;;5.12;100.00
23164;BME280;31429;42.674;23.350;2022-12-29T02:03:55;95696.03;;;5.12;100.00
23164;BME280;31429;42.674;23.350;2022-12-29T02:04:58;95694.31;;;5.14;100.00
23164;BME280;31429;42.674;23.350;2022-12-29T02:06:03;95691.81;;;5.16;100.00
23164;BME280;31429;42.674;23.350;2022-12-29T02:07:08;95690.97;;;4.99;100.00
23164;BME280;31429;42.674;23.350;2022-12-29T02:08:11;95690.16;;;4.82;100.00
23164;BME280;31429;42.674;23.350;2022-12-29T02:09:13;95689.31;;;4.69;100.00
23164;BME280;31429;42.674;23.350;2022-12-29T02:10:15;95686.78;;;4.77;100.00
23164;BME280;31429;42.674;23.350;2022-12-29T02:11:16;95683.41;;;4.82;100.00
23164;BME280;31429;42.674;23.350;2022-12-29T02:12:19;95681.69;;;4.92;100.00
23164;BME280;31429;42.674;23.350;2022-12-29T02:13:20;95686.78;;;4.99;100.00
23164;BME280;31429;42.674;23.350;2022-12-29T02:14:21;95685.06;;;5.07;100.00
23164;BME280;31429;42.674;23.350;2022-12-29T02:15:24;95687.59;;;5.13;100.00
23164;BME280;31429;42.674;23.350;2022-12-29T02:16:37;95687.56;;;5.15;100.00
23164;BME280;31429;42.674;23.350;2022-12-29T02:17:52;95691.78;;;5.17;100.00
23164;BME280;31429;42.674;23.350;2022-12-29T02:19:08;95689.28;;;5.02;100.00
23164;BME280;31429;42.674;23.350;2022-12-29T02:20:49;95680.88;;;4.84;100.00
23164;BME280;31429;42.674;23.350;2022-12-29T02:22:05;95686.78;;;4.77;100.00
23164;BME280;31429;42.674;23.350;2022-12-29T02:23:31;95686.78;;;4.81;100.00
23164;BME280;31429;42.674;23.350;2022-12-29T02:26:38;95685.94;;;4.81;100.00
23164;BME280;31429;42.674;23.350;2022-12-29T02:27:52;95691.00;;;4.84;100.00
23164;BME280;31429;42.674;23.350;2022-12-29T02:29:21;95685.06;;;4.92;100.00
23164;BME280;31429;42.674;23.350;2022-12-29T02:30:44;95681.69;;;4.89;100.00
23164;BME280;31429;42.674;23.350;2022-12-29T02:31:49;95679.16;;;4.89;100.00
23164;BME280;31429;42.674;23.350;2022-12-29T02:32:58;95685.91;;;4.97;100.00
23164;BME280;31429;42.674;23.350;2022-12-29T02:34:09;95685.91;;;5.02;100.00
23164;BME280;31429;42.674;23.350;2022-12-29T02:35:18;95682.53;;;4.94;100.00
23164;BME280;31429;42.674;23.350;2022-12-29T02:36:27;95686.75;;;4.89;100.00
23164;BME280;31429;42.674;23.350;2022-12-29T02:37:40;95685.94;;;4.85;100.00
23164;BME280;31429;42.674;23.350;2022-12-29T02:38:50;95679.16;;;4.89;100.00
23164;BME280;31429;42.674;23.350;2022-12-29T02:40:00;95691.78;;;5.08;100.00
23164;BME280;31429;42.674;23.350;2022-12-29T02:41:07;95687.56;;;5.09;100.00
23164;BME280;31429;42.674;23.350;2022-12-29T02:42:14;95690.13;;;5.06;100.00
23164;BME280;31429;42.674;23.350;2022-12-29T02:43:25;95686.72;;;5.05;100.00
23164;BME280;31429;42.674;23.350;2022-12-29T02:44:28;95686.75;;;5.04;100.00
23164;BME280;31429;42.674;23.350;2022-12-29T02:45:38;95684.22;;;5.04;100.00
23164;BME280;31429;42.674;23.350;2022-12-29T02:46:47;95682.53;;;4.86;100.00
23164;BME280;31429;42.674;23.350;2022-12-29T02:47:56;95685.09;;;4.88;100.00
23164;BME280;31429;42.674;23.350;2022-12-29T02:49:05;95691.00;;;4.90;100.00
23164;BME280;31429;42.674;23.350;2022-12-29T02:50:12;95684.25;;;4.93;100.00
23164;BME280;31429;42.674;23.350;2022-12-29T02:51:18;95685.91;;;4.99;100.00
23164;BME280;31429;42.674;23.350;2022-12-29T02:52:25;95683.38;;;4.90;100.00
23164;BME280;31429;42.674;23.350;2022-12-29T02:53:29;95681.72;;;4.72;100.00
23164;BME280;31429;42.674;23.350;2022-12-29T02:54:49;95680.03;;;4.79;100.00
23164;BME280;31429;42.674;23.350;2022-12-29T02:55:51;95680.84;;;4.94;100.00
23164;BME280;31429;42.674;23.350;2022-12-29T02:56:52;95680.84;;;4.97;100.00
23164;BME280;31429;42.674;23.350;2022-12-29T02:58:14;95677.47;;;4.74;100.00
23164;BME280;31429;42.674;23.350;2022-12-29T02:59:16;95680.03;;;4.54;100.00
23164;BME280;31429;42.674;23.350;2022-12-29T03:00:17;95685.91;;;4.43;100.00
23164;BME280;31429;42.674;23.350;2022-12-29T03:01:28;95681.69;;;4.30;100.00
23164;BME280;31429;42.674;23.350;2022-12-29T03:03:00;95676.63;;;4.30;100.00
23164;BME280;31429;42.674;23.350;2022-12-29T03:04:17;95682.53;;;4.35;100.00
23164;BME280;31429;42.674;23.350;2022-12-29T03:05:33;95674.13;;;4.55;100.00
23164;BME280;31429;42.674;23.350;2022-12-29T03:06:52;95669.91;;;4.50;100.00
23164;BME280;31429;42.674;23.350;2022-12-29T03:08:04;95665.66;;;4.43;100.00
23164;BME280;31429;42.674;23.350;2022-12-29T03:09:12;95673.28;;;4.61;100.00
23164;BME280;31429;42.674;23.350;2022-12-29T03:10:25;95664.84;;;4.59;100.00
23164;BME280;31429;42.674;23.350;2022-12-29T03:11:33;95665.69;;;4.62;100.00
23164;BME280;31429;42.674;23.350;2022-12-29T03:13:03;95674.97;;;4.56;100.00
23164;BME280;31429;42.674;23.350;2022-12-29T03:14:27;95672.44;;;4.79;100.00
23164;BME280;31429;42.674;23.350;2022-12-29T03:15:53;95671.56;;;4.93;100.00
23164;BME280;31429;42.674;23.350;2022-12-29T03:17:08;95675.78;;;5.02;100.00
23164;BME280;31429;42.674;23.350;2022-12-29T03:18:15;95674.06;;;5.05;100.00
23164;BME280;31429;42.674;23.350;2022-12-29T03:19:20;95675.75;;;5.12;100.00
23164;BME280;31429;42.674;23.350;2022-12-29T03:20:24;95669.00;;;5.10;100.00
23164;BME280;31429;42.674;23.350;2022-12-29T03:21:32;95666.47;;;5.10;100.00
23164;BME280;31429;42.674;23.350;2022-12-29T03:22:57;95663.09;;;5.08;100.00
23164;BME280;31429;42.674;23.350;2022-12-29T03:24:00;95658.88;;;5.07;100.00
23164;BME280;31429;42.674;23.350;2022-12-29T03:25:05;95658.00;;;5.11;100.00
23164;BME280;31429;42.674;23.350;2022-12-29T03:26:11;95667.31;;;5.12;100.00
23164;BME280;31429;42.674;23.350;2022-12-29T03:27:15;95665.63;;;5.12;100.00
23164;BME280;31429;42.674;23.350;2022-12-29T03:28:20;95666.47;;;5.04;100.00
23164;BME280;31429;42.674;23.350;2022-12-29T03:29:23;95660.56;;;5.08;100.00
23164;BME280;31429;42.674;23.350;2022-12-29T03:30:24;95665.63;;;5.09;100.00
23164;BME280;31429;42.674;23.350;2022-12-29T03:31:27;95671.56;;;5.01;100.00
23164;BME280;31429;42.674;23.350;2022-12-29T03:32:31;95674.06;;;5.02;100.00
23164;BME280;31429;42.674;23.350;2022-12-29T03:33:35;95665.63;;;4.94;100.00
23164;BME280;31429;42.674;23.350;2022-12-29T03:34:38;95670.75;;;4.85;100.00
23164;BME280;31429;42.674;23.350;2022-12-29T03:35:42;95669.06;;;4.77;100.00
23164;BME280;31429;42.674;23.350;2022-12-29T03:36:47;95661.44;;;4.63;100.00
23164;BME280;31429;42.674;23.350;2022-12-29T03:37:51;95664.00;;;4.49;100.00
23164;BME280;31429;42.674;23.350;2022-12-29T03:38:58;95672.44;;;4.27;100.00
23164;BME280;31429;42.674;23.350;2022-12-29T03:40:00;95671.56;;;4.15;100.00
23164;BME280;31429;42.674;23.350;2022-12-29T03:41:04;95670.72;;;4.14;100.00
23164;BME280;31429;42.674;23.350;2022-12-29T03:42:11;95671.56;;;4.10;100.00
23164;BME280;31429;42.674;23.350;2022-12-29T03:43:14;95664.81;;;4.12;100.00
23164;BME280;31429;42.674;23.350;2022-12-29T03:44:15;95670.72;;;4.19;100.00
23164;BME280;31429;42.674;23.350;2022-12-29T03:45:15;95672.44;;;4.20;100.00
23164;BME280;31429;42.674;23.350;2022-12-29T03:46:16;95669.03;;;4.13;100.00
23164;BME280;31429;42.674;23.350;2022-12-29T03:47:17;95674.09;;;4.15;100.00
23164;BME280;31429;42.674;23.350;2022-12-29T03:48:17;95671.56;;;4.07;100.00
23164;BME280;31429;42.674;23.350;2022-12-29T03:49:19;95680.81;;;4.00;100.00
23164;BME280;31429;42.674;23.350;2022-12-29T03:50:20;95674.91;;;4.01;100.00
23164;BME280;31429;42.674;23.350;2022-12-29T03:51:21;95690.97;;;4.11;100.00
23164;BME280;31429;42.674;23.350;2022-12-29T03:52:21;95684.19;;;4.04;100.00
23164;BME280;31429;42.674;23.350;2022-12-29T03:53:22;95690.09;;;4.06;100.00
23164;BME280;31429;42.674;23.350;2022-12-29T03:54:23;95685.91;;;4.16;100.00
23164;BME280;31429;42.674;23.350;2022-12-29T03:55:23;95677.47;;;4.18;100.00
23164;BME280;31429;42.674;23.350;2022-12-29T03:56:24;95690.13;;;4.14;100.00
23164;BME280;31429;42.674;23.350;2022-12-29T03:57:24;95687.56;;;3.94;100.00
23164;BME280;31429;42.674;23.350;2022-12-29T03:58:25;95692.59;;;3.95;100.00
23164;BME280;31429;42.674;23.350;2022-12-29T03:59:26;95690.03;;;3.80;100.00
23164;BME280;31429;42.674;23.350;2022-12-29T04:00:26;95695.06;;;3.71;100.00
23164;BME280;31429;42.674;23.350;2022-12-29T04:01:28;95692.56;;;3.77;100.00
23164;BME280;31429;42.674;23.350;2022-12-29T04:02:29;95692.56;;;3.74;100.00
23164;BME280;31429;42.674;23.350;2022-12-29T04:03:30;95689.22;;;3.83;100.00
23164;BME280;31429;42.674;23.350;2022-12-29T04:04:32;95695.16;;;3.94;100.00
23164;BME280;31429;42.674;23.350;2022-12-29T04:05:32;95696.00;;;3.99;100.00
23164;BME280;31429;42.674;23.350;2022-12-29T04:06:33;95701.03;;;3.96;100.00
23164;BME280;31429;42.674;23.350;2022-12-29T04:07:34;95695.97;;;3.97;100.00
23164;BME280;31429;42.674;23.350;2022-12-29T04:08:34;95694.25;;;3.78;100.00
23164;BME280;31429;42.674;23.350;2022-12-29T04:09:35;95684.97;;;3.74;100.00
23164;BME280;31429;42.674;23.350;2022-12-29T04:10:35;95693.44;;;3.88;100.00
23164;BME280;31429;42.674;23.350;2022-12-29T04:11:36;95690.94;;;3.99;100.00
23164;BME280;31429;42.674;23.350;2022-12-29T04:12:37;95685.03;;;4.06;100.00
23164;BME280;31429;42.674;23.350;2022-12-29T04:13:38;95683.34;;;4.06;100.00
23164;BME280;31429;42.674;23.350;2022-12-29T04:14:41;95688.41;;;4.06;100.00
23164;BME280;31429;42.674;23.350;2022-12-29T04:15:42;95684.16;;;3.90;100.00
23164;BME280;31429;42.674;23.350;2022-12-29T04:16:43;95688.41;;;3.91;100.00
23164;BME280;31429;42.674;23.350;2022-12-29T04:17:43;95691.75;;;3.90;100.00
23164;BME280;31429;42.674;23.350;2022-12-29T04:18:44;95687.53;;;3.91;100.00
23164;BME280;31429;42.674;23.350;2022-12-29T04:19:46;95696.81;;;3.95;100.00
23164;BME280;31429;42.674;23.350;2022-12-29T04:20:47;95694.31;;;4.01;100.00
23164;BME280;31429;42.674;23.350;2022-12-29T04:21:59;95700.16;;;3.86;100.00
23164;BME280;31429;42.674;23.350;2022-12-29T04:23:00;95696.75;;;3.72;100.00
23164;BME280;31429;42.674;23.350;2022-12-29T04:24:01;95690.03;;;3.71;100.00
23164;BME280;31429;42.674;23.350;2022-12-29T04:25:02;95691.69;;;3.72;100.00
23164;BME280;31429;42.674;23.350;2022-12-29T04:26:03;95693.38;;;3.66;100.00
23164;BME280;31429;42.674;23.350;2022-12-29T04:27:04;95695.88;;;3.64;100.00
23164;BME280;31429;42.674;23.350;2022-12-29T04:28:05;95688.25;;;3.52;100.00
23164;BME280;31429;42.674;23.350;2022-12-29T04:29:07;95697.47;;;3.42;100.00
23164;BME280;31429;42.674;23.350;2022-12-29T04:30:09;95687.31;;;3.29;100.00
23164;BME280;31429;42.674;23.350;2022-12-29T04:31:09;95692.28;;;3.14;100.00
23164;BME280;31429;42.674;23.350;2022-12-29T04:32:10;95693.91;;;3.07;100.00
23164;BME280;31429;42.674;23.350;2022-12-29T04:33:11;95694.72;;;3.02;100.00
23164;BME280;31429;42.674;23.350;2022-12-29T04:34:11;95700.59;;;2.99;100.00
23164;BME280;31429;42.674;23.350;2022-12-29T04:35:13;95699.78;;;3.00;100.00
23164;BME280;31429;42.674;23.350;2022-12-29T04:36:14;95695.56;;;3.02;100.00
23164;BME280;31429;42.674;23.350;2022-12-29T04:37:15;95696.38;;;2.92;100.00
23164;BME280;31429;42.674;23.350;2022-12-29T04:38:16;95694.63;;;2.85;100.00
23164;BME280;31429;42.674;23.350;2022-12-29T04:39:17;95699.72;;;2.91;100.00
23164;BME280;31429;42.674;23.350;2022-12-29T04:40:17;95703.09;;;2.92;100.00
23164;BME280;31429;42.674;23.350;2022-12-29T04:41:18;95700.66;;;3.05;100.00
23164;BME280;31429;42.674;23.350;2022-12-29T04:42:19;95698.22;;;3.22;100.00
23164;BME280;31429;42.674;23.350;2022-12-29T04:43:19;95702.41;;;3.17;100.00
23164;BME280;31429;42.674;23.350;2022-12-29T04:44:21;95700.66;;;3.08;100.00
23164;BME280;31429;42.674;23.350;2022-12-29T04:45:22;95692.19;;;2.99;100.00
23164;BME280;31429;42.674;23.350;2022-12-29T04:46:23;95698.84;;;2.87;100.00
23164;BME280;31429;42.674;23.350;2022-12-29T04:47:24;95718.97;;;2.77;100.00
23164;BME280;31429;42.674;23.350;2022-12-29T04:48:24;95715.56;;;2.69;100.00
23164;BME280;31429;42.674;23.350;2022-12-29T04:49:25;95707.94;;;2.64;100.00
23164;BME280;31429;42.674;23.350;2022-12-29T04:50:27;95713.88;;;2.69;100.00
23164;BME280;31429;42.674;23.350;2022-12-29T04:51:27;95718.16;;;2.78;100.00
23164;BME280;31429;42.674;23.350;2022-12-29T04:52:28;95720.66;;;2.75;100.00
23164;BME280;31429;42.674;23.350;2022-12-29T04:53:29;95719.81;;;2.77;100.00
23164;BME280;31429;42.674;23.350;2022-12-29T04:54:30;95729.06;;;2.72;100.00
23164;BME280;31429;42.674;23.350;2022-12-29T04:55:30;95721.41;;;2.65;100.00
23164;BME280;31429;42.674;23.350;2022-12-29T04:56:31;95715.53;;;2.67;100.00
23164;BME280;31429;42.674;23.350;2022-12-29T04:57:32;95716.41;;;2.75;100.00
23164;BME280;31429;42.674;23.350;2022-12-29T04:58:32;95706.34;;;2.77;100.00
23164;BME280;31429;42.674;23.350;2022-12-29T04:59:33;95715.56;;;2.73;100.00
23164;BME280;31429;42.674;23.350;2022-12-29T05:00:34;95718.88;;;2.65;100.00
23164;BME280;31429;42.674;23.350;2022-12-29T05:01:34;95719.69;;;2.58;100.00
23164;BME280;31429;42.674;23.350;2022-12-29T05:02:35;95712.97;;;2.63;100.00
23164;BME280;31429;42.674;23.350;2022-12-29T05:03:36;95714.72;;;2.73;100.00
23164;BME280;31429;42.674;23.350;2022-12-29T05:04:36;95718.25;;;2.96;100.00
23164;BME280;31429;42.674;23.350;2022-12-29T05:05:38;95715.78;;;3.07;100.00
23164;BME280;31429;42.674;23.350;2022-12-29T05:06:39;95712.47;;;3.09;100.00
23164;BME280;31429;42.674;23.350;2022-12-29T05:07:40;95707.38;;;3.03;100.00
23164;BME280;31429;42.674;23.350;2022-12-29T05:08:41;95716.59;;;3.01;100.00
23164;BME280;31429;42.674;23.350;2022-12-29T05:09:41;95718.16;;;2.84;100.00
23164;BME280;31429;42.674;23.350;2022-12-29T05:10:44;95714.72;;;2.71;100.00
23164;BME280;31429;42.674;23.350;2022-12-29T05:11:45;95721.47;;;2.74;100.00
23164;BME280;31429;42.674;23.350;2022-12-29T05:12:46;95716.44;;;2.77;100.00
23164;BME280;31429;42.674;23.350;2022-12-29T05:13:46;95706.31;;;2.75;100.00
23164;BME280;31429;42.674;23.350;2022-12-29T05:14:47;95717.31;;;2.82;100.00
23164;BME280;31429;42.674;23.350;2022-12-29T05:15:50;95718.94;;;2.74;100.00
23164;BME280;31429;42.674;23.350;2022-12-29T05:16:51;95713.00;;;2.66;100.00
23164;BME280;31429;42.674;23.350;2022-12-29T05:17:51;95721.41;;;2.63;100.00
23164;BME280;31429;42.674;23.350;2022-12-29T05:18:52;95716.34;;;2.65;100.00
23164;BME280;31429;42.674;23.350;2022-12-29T05:19:53;95716.38;;;2.68;100.00
23164;BME280;31429;42.674;23.350;2022-12-29T05:20:55;95717.25;;;2.73;100.00
23164;BME280;31429;42.674;23.350;2022-12-29T05:21:55;95715.53;;;2.67;100.00
23164;BME280;31429;42.674;23.350;2022-12-29T05:22:56;95715.47;;;2.61;100.00
23164;BME280;31429;42.674;23.350;2022-12-29T05:23:56;95720.53;;;2.64;100.00
23164;BME280;31429;42.674;23.350;2022-12-29T05:24:57;95721.44;;;2.69;100.00
23164;BME280;31429;42.674;23.350;2022-12-29T05:25:58;95713.91;;;2.72;100.00
23164;BME280;31429;42.674;23.350;2022-12-29T05:26:58;95708.84;;;2.75;100.00
23164;BME280;31429;42.674;23.350;2022-12-29T05:27:59;95709.78;;;2.83;100.00
23164;BME280;31429;42.674;23.350;2022-12-29T05:29:00;95709.81;;;2.92;100.00
23164;BME280;31429;42.674;23.350;2022-12-29T05:30:00;95713.16;;;2.90;100.00
23164;BME280;31429;42.674;23.350;2022-12-29T05:31:01;95713.13;;;2.87;100.00
23164;BME280;31429;42.674;23.350;2022-12-29T05:32:02;95714.84;;;2.86;100.00
23164;BME280;31429;42.674;23.350;2022-12-29T05:33:02;95712.34;;;2.91;100.00
23164;BME280;31429;42.674;23.350;2022-12-29T05:34:03;95710.69;;;2.95;100.00
23164;BME280;31429;42.674;23.350;2022-12-29T05:35:04;95704.00;;;3.04;100.00
23164;BME280;31429;42.674;23.350;2022-12-29T05:36:08;95711.56;;;3.00;100.00
23164;BME280;31429;42.674;23.350;2022-12-29T05:37:09;95707.34;;;3.00;100.00
23164;BME280;31429;42.674;23.350;2022-12-29T05:38:10;95713.22;;;2.99;100.00
23164;BME280;31429;42.674;23.350;2022-12-29T05:39:10;95714.06;;;2.98;100.00
23164;BME280;31429;42.674;23.350;2022-12-29T05:40:11;95716.59;;;2.98;100.00
23164;BME280;31429;42.674;23.350;2022-12-29T05:41:12;95723.31;;;2.96;100.00